images/hfc/images/print_logo.png
Drucken
[Quelle: ADDS]
METAR
EDDW 250120Z 16002KT CAVOK 03/02 Q1019 =
TAF
EDDW 242300Z 2500/2524 14006KT CAVOK BECMG 2507/2509 20008KT BECMG 2521/2523 BKN013 TEMPO 2522/2524 BKN005 =
BCMT / ECET: 05:33 / 16:44 UTC (EDDW 2021-10-25)

printlogo=no